Time,TemperatureF,DewpointF,PressureIn,WindDirection,WindDirectionDegrees,WindSpeedMPH,WindSpeedGustMPH,Humidity,HourlyPrecipIn,Conditions,Clouds,dailyrainin,SoftwareType,DateUTC
2013-10-14 00:13:00,42.2,29.0,30.14,WSW,249,3.0,6.0,59,0.00,,,0.00,weatherlink.com 1.10,2013-10-14 07:13:00,
2013-10-14 00:28:00,41.7,28.0,30.14,WNW,283,3.0,8.0,59,0.00,,,0.00,weatherlink.com 1.10,2013-10-14 07:28:00,
2013-10-14 00:43:00,41.6,28.0,30.15,West,272,4.0,7.0,59,0.00,,,0.00,weatherlink.com 1.10,2013-10-14 07:43:00,
2013-10-14 00:58:00,41.5,28.0,30.15,West,280,3.0,7.0,59,0.00,,,0.00,weatherlink.com 1.10,2013-10-14 07:58:00,
2013-10-14 01:13:00,41.2,28.0,30.15,WSW,245,4.0,6.0,60,0.00,,,0.00,weatherlink.com 1.10,2013-10-14 08:13:00,
2013-10-14 01:28:00,40.5,28.0,30.15,WNW,298,1.0,6.0,61,0.00,,,0.00,weatherlink.com 1.10,2013-10-14 08:28:00,
2013-10-14 01:43:00,39.5,28.0,30.15,WSW,248,0.0,5.0,63,0.00,,,0.00,weatherlink.com 1.10,2013-10-14 08:43:00,
2013-10-14 01:58:00,38.4,27.0,30.15,West,263,0.0,4.0,63,0.00,,,0.00,weatherlink.com 1.10,2013-10-14 08:58:00,
2013-10-14 02:13:00,38.0,26.0,30.15,WNW,285,2.0,5.0,62,0.00,,,0.00,weatherlink.com 1.10,2013-10-14 09:13:00,
2013-10-14 02:28:00,37.7,26.0,30.14,WNW,301,2.0,7.0,62,0.00,,,0.00,weatherlink.com 1.10,2013-10-14 09:28:00,
2013-10-14 02:43:00,37.7,25.0,30.14,WNW,290,4.0,8.0,60,0.00,,,0.00,weatherlink.com 1.10,2013-10-14 09:43:00,
2013-10-14 02:58:00,38.2,24.0,30.14,WNW,287,6.0,8.0,57,0.00,,,0.00,weatherlink.com 1.10,2013-10-14 09:58:00,
2013-10-14 03:13:00,38.6,24.0,30.14,WNW,301,6.0,13.0,55,0.00,,,0.00,weatherlink.com 1.10,2013-10-14 10:13:00,
2013-10-14 03:28:00,38.6,23.0,30.14,WSW,254,0.0,10.0,53,0.00,,,0.00,weatherlink.com 1.10,2013-10-14 10:28:00,
2013-10-14 03:43:00,38.5,23.0,30.14,WNW,292,2.0,10.0,53,0.00,,,0.00,weatherlink.com 1.10,2013-10-14 10:43:00,
2013-10-14 03:58:00,38.5,22.0,30.14,NW,309,3.0,8.0,52,0.00,,,0.00,weatherlink.com 1.10,2013-10-14 10:58:00,
2013-10-14 04:13:00,38.4,22.0,30.15,WNW,297,3.0,7.0,51,0.00,,,0.00,weatherlink.com 1.10,2013-10-14 11:13:00,
2013-10-14 04:28:00,38.1,21.0,30.15,West,266,1.0,6.0,51,0.00,,,0.00,weatherlink.com 1.10,2013-10-14 11:28:00,
2013-10-14 04:43:00,38.2,21.0,30.16,West,264,1.0,4.0,50,0.00,,,0.00,weatherlink.com 1.10,2013-10-14 11:43:00,
2013-10-14 04:58:00,37.9,21.0,30.16,WSW,257,3.0,4.0,51,0.00,,,0.00,weatherlink.com 1.10,2013-10-14 11:58:00,
2013-10-14 05:13:00,37.9,21.0,30.16,WNW,291,0.0,7.0,50,0.00,,,0.00,weatherlink.com 1.10,2013-10-14 12:13:00,
2013-10-14 05:28:00,38.2,20.0,30.17,WNW,297,2.0,6.0,49,0.00,,,0.00,weatherlink.com 1.10,2013-10-14 12:28:00,
2013-10-14 05:43:00,37.7,20.0,30.17,West,278,0.0,4.0,49,0.00,,,0.00,weatherlink.com 1.10,2013-10-14 12:43:00,
2013-10-14 05:58:00,37.2,20.0,30.17,WNW,289,0.0,3.0,50,0.00,,,0.00,weatherlink.com 1.10,2013-10-14 12:58:00,
2013-10-14 06:14:00,36.7,20.0,30.18,WSW,251,0.0,3.0,51,0.00,,,0.00,weatherlink.com 1.10,2013-10-14 13:14:00,
2013-10-14 06:29:00,35.5,20.0,30.18,WNW,283,0.0,1.0,54,0.00,,,0.00,weatherlink.com 1.10,2013-10-14 13:29:00,
2013-10-14 06:44:00,33.6,22.0,30.18,WNW,297,0.0,1.0,62,0.00,,,0.00,weatherlink.com 1.10,2013-10-14 13:44:00,
2013-10-14 06:59:00,32.6,22.0,30.18,WNW,302,0.0,2.0,65,0.00,,,0.00,weatherlink.com 1.10,2013-10-14 13:59:00,
2013-10-14 07:14:00,36.5,21.0,30.18,West,281,1.0,4.0,53,0.00,,,0.00,weatherlink.com 1.10,2013-10-14 14:14:00,
2013-10-14 07:29:00,40.6,20.0,30.18,West,263,2.0,6.0,43,0.00,,,0.00,weatherlink.com 1.10,2013-10-14 14:29:00,
2013-10-14 07:44:00,42.4,19.0,30.19,WNW,294,0.0,5.0,40,0.00,,,0.00,weatherlink.com 1.10,2013-10-14 14:44:00,
2013-10-14 07:59:00,44.5,19.0,30.19,WNW,290,0.0,6.0,36,0.00,,,0.00,weatherlink.com 1.10,2013-10-14 14:59:00,
2013-10-14 08:14:00,46.3,17.0,30.19,West,263,5.0,8.0,31,0.00,,,0.00,weatherlink.com 1.10,2013-10-14 15:14:00,
2013-10-14 08:29:00,47.2,15.0,30.20,West,260,5.0,8.0,28,0.00,,,0.00,weatherlink.com 1.10,2013-10-14 15:29:00,
2013-10-14 08:44:00,47.8,17.0,30.20,SSW,208,5.0,12.0,29,0.00,,,0.00,weatherlink.com 1.10,2013-10-14 15:44:00,
2013-10-14 08:59:00,48.7,18.0,30.20,WNW,289,4.0,7.0,29,0.00,,,0.00,weatherlink.com 1.10,2013-10-14 15:59:00,
2013-10-14 09:14:00,50.1,17.0,30.20,SW,226,2.0,9.0,27,0.00,,,0.00,weatherlink.com 1.10,2013-10-14 16:14:00,
2013-10-14 09:29:00,51.3,14.0,30.20,West,268,6.0,8.0,23,0.00,,,0.00,weatherlink.com 1.10,2013-10-14 16:29:00,
2013-10-14 09:44:00,52.1,15.0,30.20,WNW,292,2.0,6.0,23,0.00,,,0.00,weatherlink.com 1.10,2013-10-14 16:44:00,
2013-10-14 09:59:00,53.6,13.0,30.20,WSW,255,3.0,6.0,20,0.00,,,0.00,weatherlink.com 1.10,2013-10-14 16:59:00,
2013-10-14 10:14:00,54.0,14.0,30.20,SSE,153,4.0,7.0,20,0.00,,,0.00,weatherlink.com 1.10,2013-10-14 17:14:00,
2013-10-14 10:29:00,55.4,15.0,30.20,WSW,240,5.0,7.0,20,0.00,,,0.00,weatherlink.com 1.10,2013-10-14 17:29:00,
2013-10-14 10:44:00,56.0,12.0,30.20,WNW,290,1.0,10.0,17,0.00,,,0.00,weatherlink.com 1.10,2013-10-14 17:44:00,
2013-10-14 11:15:00,55.1,13.0,30.20,SSW,208,3.0,9.0,19,0.00,,,0.00,weatherlink.com 1.10,2013-10-14 18:15:00,
2013-10-14 11:30:00,56.6,9.0,30.19,West,262,2.0,8.0,15,0.00,,,0.00,weatherlink.com 1.10,2013-10-14 18:30:00,
2013-10-14 11:45:00,57.1,10.0,30.19,SSE,153,4.0,7.0,15,0.00,,,0.00,weatherlink.com 1.10,2013-10-14 18:45:00,
2013-10-14 12:00:00,57.5,10.0,30.18,NW,321,0.0,11.0,15,0.00,,,0.00,weatherlink.com 1.10,2013-10-14 19:00:00,
2013-10-14 12:15:00,59.0,14.0,30.17,SSE,165,4.0,12.0,17,0.00,,,0.00,weatherlink.com 1.10,2013-10-14 19:15:00,
2013-10-14 12:30:00,59.3,13.0,30.17,SSE,163,1.0,10.0,16,0.00,,,0.00,weatherlink.com 1.10,2013-10-14 19:30:00,
2013-10-14 12:45:00,57.8,14.0,30.17,WNW,293,1.0,8.0,18,0.00,,,0.00,weatherlink.com 1.10,2013-10-14 19:45:00,
2013-10-14 13:00:00,59.2,11.0,30.16,SE,134,0.0,9.0,15,0.00,,,0.00,weatherlink.com 1.10,2013-10-14 20:00:00,
2013-10-14 13:15:00,59.4,12.0,30.16,SSE,150,2.0,11.0,15,0.00,,,0.00,weatherlink.com 1.10,2013-10-14 20:15:00,
2013-10-14 13:30:00,59.8,12.0,30.16,WSW,245,3.0,10.0,15,0.00,,,0.00,weatherlink.com 1.10,2013-10-14 20:30:00,
2013-10-14 13:45:00,59.9,12.0,30.16,West,272,0.0,7.0,15,0.00,,,0.00,weatherlink.com 1.10,2013-10-14 20:45:00,
2013-10-14 14:00:00,59.0,11.0,30.15,WNW,297,3.0,8.0,15,0.00,,,0.00,weatherlink.com 1.10,2013-10-14 21:00:00,
2013-10-14 14:15:00,59.4,10.0,30.15,West,265,6.0,11.0,14,0.00,,,0.00,weatherlink.com 1.10,2013-10-14 21:15:00,
2013-10-14 14:30:00,59.5,10.0,30.15,West,259,3.0,8.0,14,0.00,,,0.00,weatherlink.com 1.10,2013-10-14 21:30:00,
2013-10-14 14:45:00,60.3,15.0,30.15,SSE,168,2.0,8.0,17,0.00,,,0.00,weatherlink.com 1.10,2013-10-14 21:45:00,
2013-10-14 15:00:00,60.0,17.0,30.15,West,277,8.0,11.0,19,0.00,,,0.00,weatherlink.com 1.10,2013-10-14 22:00:00,
2013-10-14 15:15:00,60.8,23.0,30.15,NW,314,1.0,7.0,23,0.00,,,0.00,weatherlink.com 1.10,2013-10-14 22:15:00,
2013-10-14 15:30:00,59.9,23.0,30.14,ENE,65,2.0,9.0,24,0.00,,,0.00,weatherlink.com 1.10,2013-10-14 22:30:00,
2013-10-14 15:45:00,61.3,23.0,30.14,SE,130,2.0,4.0,23,0.00,,,0.00,weatherlink.com 1.10,2013-10-14 22:45:00,
2013-10-14 16:00:00,60.3,23.0,30.14,SW,221,4.0,9.0,24,0.00,,,0.00,weatherlink.com 1.10,2013-10-14 23:00:00,
2013-10-14 16:15:00,60.0,22.0,30.14,SE,129,1.0,6.0,23,0.00,,,0.00,weatherlink.com 1.10,2013-10-14 23:15:00,
2013-10-14 16:30:00,58.9,21.0,30.14,SSE,155,1.0,8.0,23,0.00,,,0.00,weatherlink.com 1.10,2013-10-14 23:30:00,
2013-10-14 16:45:00,58.8,22.0,30.15,SSW,200,2.0,5.0,24,0.00,,,0.00,weatherlink.com 1.10,2013-10-14 23:45:00,
2013-10-14 17:00:00,56.7,21.0,30.15,South,190,0.0,6.0,25,0.00,,,0.00,weatherlink.com 1.10,2013-10-15 00:00:00,
2013-10-14 17:15:00,56.1,20.0,30.16,South,169,3.0,5.0,24,0.00,,,0.00,weatherlink.com 1.10,2013-10-15 00:15:00,
2013-10-14 17:30:00,54.8,19.0,30.16,SE,133,1.0,3.0,25,0.00,,,0.00,weatherlink.com 1.10,2013-10-15 00:30:00,
2013-10-14 17:45:00,53.2,21.0,30.16,SSE,150,0.0,1.0,28,0.00,,,0.00,weatherlink.com 1.10,2013-10-15 00:45:00,
2013-10-14 18:00:00,51.7,25.0,30.17,SE,126,0.0,2.0,36,0.00,,,0.00,weatherlink.com 1.10,2013-10-15 01:00:00,
2013-10-14 18:15:00,50.8,25.0,30.17,SE,130,0.0,1.0,37,0.00,,,0.00,weatherlink.com 1.10,2013-10-15 01:15:00,
2013-10-14 18:30:00,49.5,25.0,30.17,SE,140,0.0,1.0,39,0.00,,,0.00,weatherlink.com 1.10,2013-10-15 01:30:00,
2013-10-14 18:45:00,46.0,25.0,30.18,NW,326,0.0,1.0,44,0.00,,,0.00,weatherlink.com 1.10,2013-10-15 01:45:00,
2013-10-14 19:00:00,43.4,25.0,30.18,WNW,285,0.0,1.0,48,0.00,,,0.00,weatherlink.com 1.10,2013-10-15 02:00:00,
2013-10-14 19:15:00,42.3,25.0,30.18,North,358,2.0,3.0,51,0.00,,,0.00,weatherlink.com 1.10,2013-10-15 02:15:00,
2013-10-14 19:30:00,40.7,25.0,30.18,North,352,0.0,4.0,55,0.00,,,0.00,weatherlink.com 1.10,2013-10-15 02:30:00,
2013-10-14 19:45:00,39.6,25.0,30.19,NNW,332,0.0,3.0,57,0.00,,,0.00,weatherlink.com 1.10,2013-10-15 02:45:00,
2013-10-14 20:00:00,38.6,25.0,30.19,NNW,333,0.0,1.0,58,0.00,,,0.00,weatherlink.com 1.10,2013-10-15 03:00:00,
2013-10-14 20:15:00,37.5,24.0,30.20,NW,316,0.0,1.0,59,0.00,,,0.00,weatherlink.com 1.10,2013-10-15 03:15:00,
2013-10-14 20:30:00,36.3,24.0,30.20,NW,316,0.0,0.0,61,0.00,,,0.00,weatherlink.com 1.10,2013-10-15 03:30:00,
2013-10-14 20:45:00,35.5,23.0,30.20,NNW,328,0.0,1.0,61,0.00,,,0.00,weatherlink.com 1.10,2013-10-15 03:45:00,
2013-10-14 21:00:00,34.6,23.0,30.20,NNW,342,0.0,1.0,63,0.00,,,0.00,weatherlink.com 1.10,2013-10-15 04:00:00,
2013-10-14 21:15:00,33.9,23.0,30.20,NNW,342,0.0,1.0,64,0.00,,,0.00,weatherlink.com 1.10,2013-10-15 04:15:00,
2013-10-14 21:30:00,33.3,23.0,30.20,NNW,343,0.0,0.0,65,0.00,,,0.00,weatherlink.com 1.10,2013-10-15 04:30:00,
2013-10-14 21:45:00,32.4,22.0,30.20,NNW,343,0.0,0.0,66,0.00,,,0.00,weatherlink.com 1.10,2013-10-15 04:45:00,
2013-10-14 22:00:00,31.8,22.0,30.20,NNW,341,0.0,1.0,68,0.00,,,0.00,weatherlink.com 1.10,2013-10-15 05:00:00,
2013-10-14 22:15:00,31.0,22.0,30.20,WNW,296,0.0,1.0,69,0.00,,,0.00,weatherlink.com 1.10,2013-10-15 05:15:00,
2013-10-14 22:30:00,30.7,22.0,30.20,WNW,296,0.0,0.0,70,0.00,,,0.00,weatherlink.com 1.10,2013-10-15 05:30:00,
2013-10-14 22:45:00,30.2,22.0,30.20,WNW,296,0.0,0.0,72,0.00,,,0.00,weatherlink.com 1.10,2013-10-15 05:45:00,
2013-10-14 23:00:00,29.7,22.0,30.19,WNW,297,0.0,0.0,73,0.00,,,0.00,weatherlink.com 1.10,2013-10-15 06:00:00,
2013-10-14 23:15:00,29.4,22.0,30.18,North,354,0.0,2.0,73,0.00,,,0.00,weatherlink.com 1.10,2013-10-15 06:15:00,
2013-10-14 23:30:00,29.2,22.0,30.18,West,261,0.0,1.0,74,0.00,,,0.00,weatherlink.com 1.10,2013-10-15 06:30:00,
2013-10-14 23:45:00,28.9,22.0,30.18,NNW,335,0.0,1.0,74,0.00,,,0.00,weatherlink.com 1.10,2013-10-15 06:45:00,